createdAt,value
2017-08-16T00:00:05.048Z,0
2017-08-16T00:00:45.938Z,0
2017-08-16T00:01:26.833Z,0
2017-08-16T00:02:07.731Z,0
2017-08-16T00:02:48.624Z,0
2017-08-16T00:03:29.526Z,0
2017-08-16T00:04:10.419Z,0
2017-08-16T00:04:51.317Z,0
2017-08-16T00:05:32.213Z,0
2017-08-16T00:06:13.107Z,0
2017-08-16T00:06:54.004Z,0
2017-08-16T00:07:34.909Z,0
2017-08-16T00:08:15.808Z,0
2017-08-16T00:08:56.707Z,0
2017-08-16T00:09:37.625Z,0
2017-08-16T00:10:18.514Z,0
2017-08-16T00:10:59.417Z,0
2017-08-16T00:11:40.301Z,0
2017-08-16T00:12:21.188Z,0
2017-08-16T00:13:02.077Z,0
2017-08-16T00:13:42.971Z,0
2017-08-16T00:14:23.866Z,0
2017-08-16T00:15:04.772Z,0
2017-08-16T00:15:45.696Z,0
2017-08-16T00:16:26.588Z,0
2017-08-16T00:17:07.473Z,0
2017-08-16T00:17:48.357Z,0
2017-08-16T00:18:29.244Z,0
2017-08-16T00:19:10.144Z,0
2017-08-16T00:19:51.034Z,0
2017-08-16T00:20:31.944Z,0
2017-08-16T00:21:12.830Z,0
2017-08-16T00:21:53.718Z,0
2017-08-16T00:22:34.621Z,0
2017-08-16T00:23:15.505Z,0
2017-08-16T00:23:56.386Z,0
2017-08-16T00:24:37.287Z,0
2017-08-16T00:25:18.176Z,0
2017-08-16T00:25:59.067Z,0
2017-08-16T00:26:39.971Z,0
2017-08-16T00:27:20.882Z,0
2017-08-16T00:28:01.788Z,0
2017-08-16T00:28:42.675Z,0
2017-08-16T00:29:23.572Z,0
2017-08-16T00:30:04.465Z,0
2017-08-16T00:30:45.353Z,0
2017-08-16T00:31:26.247Z,0
2017-08-16T00:32:07.144Z,0
2017-08-16T00:32:48.054Z,0
2017-08-16T00:33:28.947Z,0
2017-08-16T00:34:09.862Z,0
2017-08-16T00:34:50.746Z,0
2017-08-16T00:35:31.638Z,0
2017-08-16T00:36:12.596Z,0
2017-08-16T00:36:53.483Z,0
2017-08-16T00:37:34.378Z,0
2017-08-16T00:38:15.273Z,0
2017-08-16T00:38:56.161Z,0
2017-08-16T00:39:37.050Z,0
2017-08-16T00:40:17.951Z,0
2017-08-16T00:40:58.834Z,0
2017-08-16T00:41:39.720Z,0
2017-08-16T00:42:20.615Z,0
2017-08-16T00:43:01.514Z,0
2017-08-16T00:43:42.397Z,0
2017-08-16T00:44:23.291Z,0
2017-08-16T00:45:04.185Z,0
2017-08-16T00:45:45.085Z,0
2017-08-16T00:46:25.984Z,0
2017-08-16T00:47:06.903Z,0
2017-08-16T00:47:47.812Z,0
2017-08-16T00:48:28.715Z,0
2017-08-16T00:49:09.606Z,0
2017-08-16T00:49:50.505Z,0
2017-08-16T00:50:31.390Z,0
2017-08-16T00:51:12.278Z,0
2017-08-16T00:51:53.185Z,0
2017-08-16T00:52:34.069Z,0
2017-08-16T00:53:14.958Z,0
2017-08-16T00:53:55.863Z,0
2017-08-16T00:54:36.753Z,0
2017-08-16T00:55:17.660Z,0
2017-08-16T00:55:58.564Z,0
2017-08-16T00:56:39.454Z,0
2017-08-16T00:57:20.356Z,0
2017-08-16T00:58:01.246Z,0
2017-08-16T00:58:42.149Z,0
2017-08-16T00:59:23.034Z,0
2017-08-16T01:00:03.943Z,0
2017-08-16T01:00:44.840Z,0
2017-08-16T01:01:25.718Z,0
2017-08-16T01:02:06.620Z,0
2017-08-16T01:02:47.523Z,0
2017-08-16T01:03:28.414Z,0
2017-08-16T01:04:09.319Z,0
2017-08-16T01:04:50.201Z,0
2017-08-16T01:05:31.087Z,0
2017-08-16T01:06:11.975Z,0
2017-08-16T01:06:52.873Z,0
2017-08-16T01:07:33.761Z,0
2017-08-16T01:08:14.693Z,0
2017-08-16T01:08:55.570Z,0
2017-08-16T01:09:36.492Z,0
2017-08-16T01:10:17.373Z,0
2017-08-16T01:10:58.280Z,0
2017-08-16T01:11:39.167Z,0
2017-08-16T01:12:20.062Z,0
2017-08-16T01:13:00.963Z,0
2017-08-16T01:13:41.859Z,0
2017-08-16T01:14:22.755Z,0
2017-08-16T01:15:18.186Z,0
2017-08-16T01:15:59.081Z,0
2017-08-16T01:16:39.978Z,0
2017-08-16T01:17:20.881Z,0
2017-08-16T01:18:01.772Z,0
2017-08-16T01:18:42.659Z,0
2017-08-16T01:19:23.553Z,0
2017-08-16T01:20:04.458Z,0
2017-08-16T01:20:45.353Z,0
2017-08-16T01:21:26.252Z,0
2017-08-16T01:22:07.165Z,0
2017-08-16T01:22:48.054Z,0
2017-08-16T01:23:28.948Z,0
2017-08-16T01:24:09.839Z,0
2017-08-16T01:24:50.776Z,0
2017-08-16T01:25:31.637Z,0
2017-08-16T01:26:12.543Z,0
2017-08-16T01:26:53.430Z,0
2017-08-16T01:27:34.318Z,0
2017-08-16T01:28:15.221Z,0
2017-08-16T01:28:56.112Z,0
2017-08-16T01:29:37.010Z,0
2017-08-16T01:30:17.907Z,0
2017-08-16T01:30:58.798Z,0
2017-08-16T01:31:39.689Z,0
2017-08-16T01:32:20.604Z,0
2017-08-16T01:33:01.501Z,0
2017-08-16T01:33:42.393Z,0
2017-08-16T01:34:23.293Z,0
2017-08-16T01:35:04.179Z,0
2017-08-16T01:35:45.075Z,0
2017-08-16T01:36:25.962Z,0
2017-08-16T01:37:06.865Z,0
2017-08-16T01:37:47.766Z,0
2017-08-16T01:38:28.655Z,0
2017-08-16T01:39:09.553Z,0
2017-08-16T01:39:50.447Z,0
2017-08-16T01:40:31.334Z,0
2017-08-16T01:41:12.230Z,0
2017-08-16T01:41:53.126Z,0
2017-08-16T01:42:34.019Z,0
2017-08-16T01:43:14.924Z,0
2017-08-16T01:43:55.810Z,0
2017-08-16T01:44:36.698Z,0
2017-08-16T01:45:17.613Z,0
2017-08-16T01:45:58.488Z,0
2017-08-16T01:46:39.373Z,0
2017-08-16T01:47:20.259Z,0
2017-08-16T01:48:01.153Z,0
2017-08-16T01:48:42.045Z,0
2017-08-16T01:49:22.938Z,0
2017-08-16T01:50:03.830Z,0
2017-08-16T01:50:44.707Z,0
2017-08-16T01:51:25.588Z,0
2017-08-16T01:52:06.488Z,0
2017-08-16T01:52:47.379Z,0
2017-08-16T01:53:28.262Z,0
2017-08-16T01:54:09.206Z,0
2017-08-16T01:54:50.107Z,0
2017-08-16T01:55:31.000Z,0
2017-08-16T01:56:11.882Z,0
2017-08-16T01:56:52.788Z,0
2017-08-16T01:57:33.745Z,0
2017-08-16T01:58:14.556Z,0
2017-08-16T01:58:55.489Z,0
2017-08-16T01:59:36.339Z,0
2017-08-16T02:00:17.246Z,0
2017-08-16T02:00:58.141Z,0
2017-08-16T02:01:39.032Z,0
2017-08-16T02:02:19.922Z,0
2017-08-16T02:03:00.839Z,0
2017-08-16T02:03:41.710Z,0
2017-08-16T02:04:22.582Z,0
2017-08-16T02:05:03.497Z,0
2017-08-16T02:05:44.376Z,0
2017-08-16T02:06:25.266Z,0
2017-08-16T02:07:06.164Z,0
2017-08-16T02:07:47.058Z,0
2017-08-16T02:08:27.942Z,0
2017-08-16T02:09:08.838Z,0
2017-08-16T02:09:49.724Z,0
2017-08-16T02:10:30.625Z,0
2017-08-16T02:11:11.512Z,0
2017-08-16T02:11:52.406Z,0
2017-08-16T02:12:33.301Z,0
2017-08-16T02:13:14.202Z,0
2017-08-16T02:13:55.081Z,0
2017-08-16T02:14:36.010Z,0
2017-08-16T02:15:16.887Z,0
2017-08-16T02:15:57.786Z,0
2017-08-16T02:16:38.680Z,0
2017-08-16T02:17:19.573Z,0
2017-08-16T02:18:00.467Z,0
2017-08-16T02:18:41.402Z,0
2017-08-16T02:19:22.258Z,0
2017-08-16T02:20:03.167Z,0
2017-08-16T02:20:44.052Z,0
2017-08-16T02:21:24.941Z,0
2017-08-16T02:22:05.833Z,0
2017-08-16T02:22:46.726Z,0
2017-08-16T02:23:27.644Z,0
2017-08-16T02:24:08.542Z,0
2017-08-16T02:24:49.429Z,0
2017-08-16T02:25:30.317Z,0
2017-08-16T02:26:11.216Z,0
2017-08-16T02:26:52.104Z,0
2017-08-16T02:27:32.987Z,0
2017-08-16T02:28:13.880Z,0
2017-08-16T02:28:54.775Z,0
2017-08-16T02:29:35.668Z,0
2017-08-16T02:30:16.572Z,0
2017-08-16T02:30:57.453Z,0
2017-08-16T02:31:38.346Z,0
2017-08-16T02:32:19.248Z,0
2017-08-16T02:33:00.134Z,0
2017-08-16T02:33:41.017Z,0
2017-08-16T02:34:21.907Z,0
2017-08-16T02:35:02.807Z,0
2017-08-16T02:35:43.718Z,0
2017-08-16T02:36:24.620Z,0
2017-08-16T02:37:05.504Z,0
2017-08-16T02:37:46.401Z,0
2017-08-16T02:38:27.296Z,0
2017-08-16T02:39:08.192Z,0
2017-08-16T02:39:49.070Z,0
2017-08-16T02:40:29.976Z,0
2017-08-16T02:41:10.858Z,0
2017-08-16T02:41:51.752Z,0
2017-08-16T02:42:32.649Z,0
2017-08-16T02:43:13.535Z,0
2017-08-16T02:43:54.424Z,0
2017-08-16T02:44:35.329Z,0
2017-08-16T02:45:16.219Z,0
2017-08-16T02:45:57.118Z,0
2017-08-16T02:46:38.033Z,0
2017-08-16T02:47:18.917Z,0
2017-08-16T02:47:59.824Z,0
2017-08-16T02:48:40.730Z,0
2017-08-16T02:49:21.637Z,0
2017-08-16T02:50:02.525Z,0
2017-08-16T02:50:43.435Z,0
2017-08-16T02:51:24.326Z,0
2017-08-16T02:52:05.228Z,0
2017-08-16T02:52:46.121Z,0
2017-08-16T02:53:27.021Z,0
2017-08-16T02:54:07.930Z,0
2017-08-16T02:54:48.815Z,0
2017-08-16T02:55:29.719Z,0
2017-08-16T02:56:10.617Z,0
2017-08-16T02:56:51.515Z,0
2017-08-16T02:57:32.423Z,0
2017-08-16T02:58:13.320Z,0
2017-08-16T02:58:54.239Z,0
2017-08-16T02:59:35.148Z,0
2017-08-16T03:00:16.040Z,0
2017-08-16T03:00:56.943Z,0
2017-08-16T03:01:37.836Z,0
2017-08-16T03:02:18.747Z,0
2017-08-16T03:02:59.639Z,0
2017-08-16T03:03:40.542Z,0
2017-08-16T03:04:21.434Z,0
2017-08-16T03:05:02.336Z,0
2017-08-16T03:05:43.236Z,0
2017-08-16T03:06:24.133Z,0
2017-08-16T03:07:05.058Z,0
2017-08-16T03:07:45.955Z,0
2017-08-16T03:08:26.856Z,0
2017-08-16T03:09:07.749Z,0
2017-08-16T03:09:48.647Z,0
2017-08-16T03:10:29.551Z,0
2017-08-16T03:11:10.448Z,0
2017-08-16T03:11:51.345Z,0
2017-08-16T03:12:32.245Z,0
2017-08-16T03:13:13.133Z,0
2017-08-16T03:13:54.070Z,0
2017-08-16T03:14:34.951Z,0
2017-08-16T03:15:15.844Z,0
2017-08-16T03:15:56.724Z,0
2017-08-16T03:16:37.611Z,0
2017-08-16T03:17:18.500Z,0
2017-08-16T03:17:59.391Z,0
2017-08-16T03:18:40.302Z,0
2017-08-16T03:19:21.200Z,0
2017-08-16T03:20:02.084Z,0
2017-08-16T03:20:42.978Z,0
2017-08-16T03:21:23.872Z,0
2017-08-16T03:22:04.783Z,0
2017-08-16T03:22:45.688Z,0
2017-08-16T03:23:26.574Z,0
2017-08-16T03:24:07.460Z,0
2017-08-16T03:24:48.359Z,0
2017-08-16T03:25:29.245Z,0
2017-08-16T03:26:10.160Z,0
2017-08-16T03:26:51.054Z,0
2017-08-16T03:27:31.948Z,0
2017-08-16T03:28:12.838Z,0
2017-08-16T03:28:53.726Z,0
2017-08-16T03:29:34.626Z,0
2017-08-16T03:30:15.536Z,0
2017-08-16T03:30:56.421Z,0
2017-08-16T03:31:37.318Z,0
2017-08-16T03:32:18.206Z,0
2017-08-16T03:32:59.097Z,0
2017-08-16T03:33:40.005Z,0
2017-08-16T03:34:20.900Z,0
2017-08-16T03:35:01.790Z,0
2017-08-16T03:35:42.690Z,0
2017-08-16T03:36:23.570Z,0
2017-08-16T03:37:04.470Z,0
2017-08-16T03:37:45.357Z,0
2017-08-16T03:38:26.259Z,0
2017-08-16T03:39:07.152Z,0
2017-08-16T03:39:48.041Z,0
2017-08-16T03:40:28.937Z,0
2017-08-16T03:41:09.861Z,0
2017-08-16T03:41:50.729Z,0
2017-08-16T03:42:31.620Z,0
2017-08-16T03:43:12.513Z,0
2017-08-16T03:43:53.404Z,0
2017-08-16T03:44:34.295Z,0
2017-08-16T03:45:15.189Z,0
2017-08-16T03:45:56.086Z,0
2017-08-16T03:46:36.977Z,0
2017-08-16T03:47:17.862Z,0
2017-08-16T03:47:58.761Z,0
2017-08-16T03:48:39.655Z,0
2017-08-16T03:49:20.541Z,0
2017-08-16T03:50:01.444Z,0
2017-08-16T03:50:42.333Z,5
2017-08-16T03:51:23.232Z,5
2017-08-16T03:52:04.112Z,5
2017-08-16T03:52:45.003Z,5
2017-08-16T03:53:25.898Z,5
2017-08-16T03:54:06.791Z,5
2017-08-16T03:54:47.687Z,5
2017-08-16T03:55:28.588Z,5
2017-08-16T03:56:09.485Z,5
2017-08-16T03:56:50.379Z,5
2017-08-16T03:57:31.281Z,5
2017-08-16T03:58:12.159Z,5
2017-08-16T03:58:53.050Z,5
2017-08-16T03:59:33.950Z,5
2017-08-16T04:00:14.842Z,5
2017-08-16T04:00:55.731Z,5
2017-08-16T04:01:36.631Z,5
2017-08-16T04:02:17.518Z,5
2017-08-16T04:02:58.401Z,5
2017-08-16T04:03:39.299Z,10
2017-08-16T04:04:20.189Z,10
2017-08-16T04:05:01.086Z,10
2017-08-16T04:05:41.990Z,10
2017-08-16T04:06:22.883Z,10
2017-08-16T04:07:03.799Z,10
2017-08-16T04:07:44.670Z,10
2017-08-16T04:08:25.576Z,10
2017-08-16T04:09:06.471Z,10
2017-08-16T04:09:47.356Z,10
2017-08-16T04:10:28.248Z,15
2017-08-16T04:11:09.151Z,15
2017-08-16T04:11:50.033Z,15
2017-08-16T04:12:30.920Z,15
2017-08-16T04:13:11.823Z,15
2017-08-16T04:13:52.713Z,15
2017-08-16T04:14:33.612Z,20
2017-08-16T04:15:14.508Z,20
2017-08-16T04:15:55.395Z,20
2017-08-16T04:16:36.283Z,20
2017-08-16T04:17:17.176Z,20
2017-08-16T04:17:58.061Z,20
2017-08-16T04:18:38.946Z,20
2017-08-16T04:19:19.852Z,20
2017-08-16T04:20:00.742Z,20
2017-08-16T04:20:41.644Z,20
2017-08-16T04:21:22.543Z,20
2017-08-16T04:22:03.418Z,25
2017-08-16T04:22:44.307Z,25
2017-08-16T04:23:25.205Z,25
2017-08-16T04:24:06.091Z,25
2017-08-16T04:24:46.981Z,25
2017-08-16T04:25:27.875Z,25
2017-08-16T04:26:08.752Z,25
2017-08-16T04:26:49.658Z,25
2017-08-16T04:27:30.555Z,25
2017-08-16T04:28:11.462Z,25
2017-08-16T04:28:52.376Z,25
2017-08-16T04:29:33.260Z,30
2017-08-16T04:30:14.153Z,30
2017-08-16T04:30:55.056Z,30
2017-08-16T04:31:35.942Z,30
2017-08-16T04:32:16.841Z,35
2017-08-16T04:32:57.734Z,35
2017-08-16T04:33:38.622Z,40
2017-08-16T04:34:19.524Z,40
2017-08-16T04:35:00.408Z,40
2017-08-16T04:35:41.300Z,45
2017-08-16T04:36:22.206Z,45
2017-08-16T04:37:03.103Z,45
2017-08-16T04:37:44.001Z,45
2017-08-16T04:38:24.898Z,40
2017-08-16T04:39:05.788Z,40
2017-08-16T04:39:46.678Z,40
2017-08-16T04:40:27.584Z,35
2017-08-16T04:41:08.461Z,35
2017-08-16T04:41:49.351Z,35
2017-08-16T04:42:30.237Z,35
2017-08-16T04:43:11.123Z,35
2017-08-16T04:43:52.003Z,35
2017-08-16T04:44:32.906Z,35
2017-08-16T04:45:13.801Z,35
2017-08-16T04:45:54.686Z,35
2017-08-16T04:46:35.583Z,35
2017-08-16T04:47:17.472Z,40
2017-08-16T04:47:58.354Z,40
2017-08-16T04:48:39.245Z,40
2017-08-16T04:49:20.149Z,40
2017-08-16T04:50:01.029Z,40
2017-08-16T04:50:41.908Z,40
2017-08-16T04:52:56.064Z,40
2017-08-16T04:53:36.960Z,40
2017-08-16T04:54:17.847Z,40
2017-08-16T04:54:58.734Z,40
2017-08-16T04:55:39.629Z,40
2017-08-16T04:56:20.522Z,40
2017-08-16T04:57:01.386Z,45
2017-08-16T04:57:42.282Z,45
2017-08-16T04:58:23.186Z,45
2017-08-16T04:59:04.068Z,50
2017-08-16T04:59:44.961Z,50
2017-08-16T05:00:25.849Z,50
2017-08-16T05:01:06.778Z,50
2017-08-16T05:01:47.710Z,50
2017-08-16T05:02:28.642Z,50
2017-08-16T05:03:09.515Z,55
2017-08-16T05:03:50.388Z,55
2017-08-16T05:04:31.252Z,55
2017-08-16T05:05:12.182Z,55
2017-08-16T05:05:53.051Z,60
2017-08-16T05:06:33.920Z,60
2017-08-16T05:07:14.809Z,60
2017-08-16T05:07:55.709Z,65
2017-08-16T05:08:36.670Z,65
2017-08-16T05:09:17.542Z,65
2017-08-16T05:09:58.423Z,65
2017-08-16T05:10:39.327Z,65
2017-08-16T05:11:20.225Z,70
2017-08-16T05:12:01.105Z,70
2017-08-16T05:12:41.997Z,70
2017-08-16T05:13:22.943Z,70
2017-08-16T05:14:03.834Z,70
2017-08-16T05:14:44.716Z,70
2017-08-16T05:15:25.587Z,70
2017-08-16T05:16:06.477Z,70
2017-08-16T05:16:47.374Z,70
2017-08-16T05:17:28.258Z,70
2017-08-16T05:18:09.147Z,70
2017-08-16T05:18:50.038Z,70
2017-08-16T05:19:30.922Z,70
2017-08-16T05:20:11.817Z,70
2017-08-16T05:20:52.833Z,65
2017-08-16T05:21:33.690Z,65
2017-08-16T05:22:14.630Z,65
2017-08-16T05:22:55.523Z,60
2017-08-16T05:23:36.418Z,60
2017-08-16T05:24:17.309Z,55
2017-08-16T05:24:58.201Z,55
2017-08-16T05:25:39.098Z,55
2017-08-16T05:26:19.987Z,50
2017-08-16T05:27:00.879Z,50
2017-08-16T05:27:41.769Z,50
2017-08-16T05:28:22.680Z,45
2017-08-16T05:29:03.574Z,45
2017-08-16T05:29:44.461Z,45
2017-08-16T05:30:25.354Z,45
2017-08-16T05:31:06.231Z,40
2017-08-16T05:31:47.109Z,40
2017-08-16T05:32:27.994Z,40
2017-08-16T05:33:08.887Z,40
2017-08-16T05:33:49.769Z,35
2017-08-16T05:34:30.637Z,35
2017-08-16T05:35:11.536Z,35
2017-08-16T05:35:52.456Z,35
2017-08-16T05:36:33.338Z,35
2017-08-16T05:37:14.245Z,35
2017-08-16T05:37:55.125Z,35
2017-08-16T05:38:36.010Z,35
2017-08-16T05:39:16.920Z,35
2017-08-16T05:39:57.792Z,40
2017-08-16T05:40:38.683Z,45
2017-08-16T05:41:19.593Z,45
2017-08-16T05:42:00.537Z,50
2017-08-16T05:42:41.396Z,50
2017-08-16T05:43:22.290Z,55
2017-08-16T05:44:03.177Z,55
2017-08-16T05:44:44.068Z,60
2017-08-16T05:45:24.956Z,60
2017-08-16T05:46:05.853Z,60
2017-08-16T05:46:46.751Z,60
2017-08-16T05:47:27.645Z,60
2017-08-16T05:48:08.537Z,60
2017-08-16T05:48:49.437Z,60
2017-08-16T05:49:30.325Z,60
2017-08-16T05:50:11.233Z,65
2017-08-16T05:50:52.118Z,65
2017-08-16T05:51:33.008Z,70
2017-08-16T05:52:13.900Z,70
2017-08-16T05:52:54.816Z,75
2017-08-16T05:53:35.700Z,80
2017-08-16T05:54:16.610Z,80
2017-08-16T05:54:57.494Z,85
2017-08-16T05:55:38.388Z,85
2017-08-16T05:56:19.276Z,85
2017-08-16T05:57:00.172Z,85
2017-08-16T05:57:41.062Z,90
2017-08-16T05:58:21.952Z,90
2017-08-16T05:59:02.846Z,90
2017-08-16T05:59:43.740Z,95
2017-08-16T06:00:24.626Z,95
2017-08-16T06:01:05.517Z,100
2017-08-16T06:01:46.409Z,100
2017-08-16T06:02:27.297Z,100
2017-08-16T06:03:08.181Z,100
2017-08-16T06:03:49.108Z,100
2017-08-16T06:04:30.002Z,100
2017-08-16T06:05:10.908Z,100
2017-08-16T06:05:51.804Z,100
2017-08-16T06:06:32.701Z,100
2017-08-16T06:07:13.603Z,100
2017-08-16T06:07:54.474Z,95
2017-08-16T06:08:35.360Z,100
2017-08-16T06:09:16.246Z,90
2017-08-16T06:09:57.138Z,90
2017-08-16T06:10:38.027Z,90
2017-08-16T06:11:18.915Z,90
2017-08-16T06:11:59.816Z,90
2017-08-16T06:12:40.715Z,85
2017-08-16T06:13:21.612Z,85
2017-08-16T06:14:02.513Z,85
2017-08-16T06:14:43.405Z,85
2017-08-16T06:15:24.303Z,85
2017-08-16T06:16:05.201Z,85
2017-08-16T06:16:46.108Z,85
2017-08-16T06:17:26.999Z,80
2017-08-16T06:18:07.897Z,80
2017-08-16T06:18:48.782Z,80
2017-08-16T06:19:29.676Z,80
2017-08-16T06:20:10.568Z,80
2017-08-16T06:20:51.450Z,80
2017-08-16T06:21:32.332Z,85
2017-08-16T06:22:13.236Z,85
2017-08-16T06:22:54.116Z,85
2017-08-16T06:23:35.006Z,85
2017-08-16T06:24:15.897Z,85
2017-08-16T06:24:56.782Z,85
2017-08-16T06:25:37.675Z,85
2017-08-16T06:26:18.570Z,85
2017-08-16T06:26:59.453Z,90
2017-08-16T06:27:40.345Z,90
2017-08-16T06:28:21.237Z,90
2017-08-16T06:29:02.127Z,90
2017-08-16T06:29:43.022Z,95
2017-08-16T06:30:23.912Z,95
2017-08-16T06:31:04.804Z,100
2017-08-16T06:31:45.692Z,100
2017-08-16T06:32:26.593Z,105
2017-08-16T06:33:07.464Z,110
2017-08-16T06:33:48.365Z,110
2017-08-16T06:34:29.273Z,115
2017-08-16T06:35:10.164Z,115
2017-08-16T06:35:51.056Z,115
2017-08-16T06:36:31.950Z,115
2017-08-16T06:37:12.839Z,115
2017-08-16T06:37:53.763Z,115
2017-08-16T06:38:34.652Z,120
2017-08-16T06:39:15.548Z,120
2017-08-16T06:39:56.429Z,120
2017-08-16T06:40:37.337Z,120
2017-08-16T06:41:18.191Z,120
2017-08-16T06:41:59.102Z,120
2017-08-16T06:42:39.992Z,115
2017-08-16T06:43:20.896Z,110
2017-08-16T06:44:01.773Z,105
2017-08-16T06:44:42.655Z,100
2017-08-16T06:45:23.553Z,100
2017-08-16T06:46:04.443Z,95
2017-08-16T06:46:45.330Z,90
2017-08-16T06:47:26.274Z,90
2017-08-16T06:48:07.172Z,90
2017-08-16T06:48:48.053Z,95
2017-08-16T06:49:29.000Z,90
2017-08-16T06:50:09.889Z,90
2017-08-16T06:50:50.779Z,90
2017-08-16T06:51:31.675Z,90
2017-08-16T06:52:12.570Z,85
2017-08-16T06:52:53.517Z,85
2017-08-16T06:53:34.429Z,80
2017-08-16T06:54:15.293Z,80
2017-08-16T06:54:56.194Z,80
2017-08-16T06:55:37.084Z,80
2017-08-16T06:56:17.975Z,80
2017-08-16T06:56:58.869Z,80
2017-08-16T06:57:39.765Z,80
2017-08-16T06:58:20.650Z,80
2017-08-16T06:59:01.579Z,80
2017-08-16T06:59:42.472Z,80
2017-08-16T07:00:23.377Z,80
2017-08-16T07:01:04.270Z,80
2017-08-16T07:01:45.172Z,85
2017-08-16T07:02:26.059Z,85
2017-08-16T07:03:06.940Z,85
2017-08-16T07:03:47.833Z,90
2017-08-16T07:04:28.738Z,90
2017-08-16T07:05:09.629Z,90
2017-08-16T07:05:50.520Z,95
2017-08-16T07:06:31.417Z,95
2017-08-16T07:07:12.298Z,100
2017-08-16T07:07:53.198Z,100
2017-08-16T07:08:34.091Z,100
2017-08-16T07:09:14.980Z,100
2017-08-16T07:09:55.875Z,100
2017-08-16T07:10:36.760Z,100
2017-08-16T07:11:17.653Z,100
2017-08-16T07:11:58.539Z,100
2017-08-16T07:12:39.437Z,100
2017-08-16T07:13:20.332Z,100
2017-08-16T07:14:01.228Z,100
2017-08-16T07:14:42.124Z,100
2017-08-16T07:16:35.787Z,100
2017-08-16T07:17:16.676Z,100
2017-08-16T07:17:57.563Z,100
2017-08-16T07:18:38.456Z,95
2017-08-16T07:19:19.383Z,95
2017-08-16T07:20:00.279Z,95
2017-08-16T07:20:41.165Z,95
2017-08-16T07:21:22.076Z,90
2017-08-16T07:22:02.975Z,90
2017-08-16T07:22:43.859Z,90
2017-08-16T07:23:24.754Z,90
2017-08-16T07:24:05.617Z,90
2017-08-16T07:24:46.508Z,90
2017-08-16T07:25:27.394Z,90
2017-08-16T07:26:08.290Z,90
2017-08-16T07:26:49.173Z,90
2017-08-16T07:27:30.068Z,90
2017-08-16T07:28:10.968Z,90
2017-08-16T07:28:51.856Z,90
2017-08-16T07:29:32.733Z,90
2017-08-16T07:30:13.627Z,90
2017-08-16T07:30:54.685Z,90
2017-08-16T07:31:35.593Z,90
2017-08-16T07:32:16.491Z,90
2017-08-16T07:32:57.392Z,90
2017-08-16T07:33:38.269Z,90
2017-08-16T07:34:19.150Z,85
2017-08-16T07:35:00.058Z,85
2017-08-16T07:35:40.940Z,85
2017-08-16T07:36:21.825Z,80
2017-08-16T07:37:02.710Z,80
2017-08-16T07:37:43.594Z,80
2017-08-16T07:38:24.502Z,80
2017-08-16T07:39:05.390Z,80
2017-08-16T07:39:46.278Z,80
2017-08-16T07:40:27.199Z,75
2017-08-16T07:41:08.064Z,75
2017-08-16T07:41:48.955Z,75
2017-08-16T07:42:29.833Z,75
2017-08-16T07:43:10.727Z,75
2017-08-16T07:43:51.620Z,75
2017-08-16T07:44:32.511Z,75
2017-08-16T07:45:13.393Z,75
2017-08-16T07:45:54.281Z,75
2017-08-16T07:46:35.171Z,75
2017-08-16T07:47:16.072Z,75
2017-08-16T07:47:56.975Z,75
2017-08-16T07:48:37.865Z,75
2017-08-16T07:49:18.813Z,75
2017-08-16T07:49:59.698Z,75
2017-08-16T07:50:40.600Z,75
2017-08-16T07:51:21.485Z,75
2017-08-16T07:52:02.379Z,75
2017-08-16T07:52:43.264Z,75
2017-08-16T07:53:24.166Z,70
2017-08-16T07:54:05.060Z,70
2017-08-16T07:54:45.960Z,70
2017-08-16T07:55:26.924Z,70
2017-08-16T07:56:07.794Z,70
2017-08-16T07:56:48.679Z,70
2017-08-16T07:57:29.570Z,70
2017-08-16T07:58:10.461Z,65
2017-08-16T07:58:51.356Z,65
2017-08-16T07:59:32.244Z,65
2017-08-16T08:00:13.144Z,65
2017-08-16T08:00:54.035Z,60
2017-08-16T08:01:34.938Z,60
2017-08-16T08:02:15.834Z,60
2017-08-16T08:02:56.729Z,55
2017-08-16T08:03:37.627Z,50
2017-08-16T08:04:18.522Z,45
2017-08-16T08:04:59.421Z,40
2017-08-16T08:05:40.313Z,40
2017-08-16T08:06:21.205Z,40
2017-08-16T08:07:02.085Z,40
2017-08-16T08:07:42.995Z,40
2017-08-16T08:08:23.875Z,45
2017-08-16T08:09:04.763Z,40
2017-08-16T08:09:45.653Z,40
2017-08-16T08:10:26.541Z,35
2017-08-16T08:11:07.433Z,35
2017-08-16T08:11:48.325Z,40
2017-08-16T08:12:29.255Z,40
2017-08-16T08:13:10.182Z,40
2017-08-16T08:13:51.095Z,40
2017-08-16T08:14:31.975Z,40
2017-08-16T08:15:12.861Z,40
2017-08-16T08:15:53.752Z,50
2017-08-16T08:16:34.638Z,50
2017-08-16T08:17:15.520Z,45
2017-08-16T08:17:56.414Z,45
2017-08-16T08:18:37.310Z,50
2017-08-16T08:19:18.195Z,50
2017-08-16T08:19:59.099Z,50
2017-08-16T08:20:39.993Z,50
2017-08-16T08:21:20.867Z,50
2017-08-16T08:22:01.747Z,45
2017-08-16T08:22:42.642Z,45
2017-08-16T08:23:23.540Z,45
2017-08-16T08:24:04.435Z,50
2017-08-16T08:24:45.337Z,50
2017-08-16T08:25:26.216Z,50
2017-08-16T08:26:07.084Z,55
2017-08-16T08:26:47.966Z,60
2017-08-16T08:27:28.872Z,55
2017-08-16T08:28:09.756Z,55
2017-08-16T08:28:50.646Z,55
2017-08-16T08:29:31.544Z,50
2017-08-16T08:30:12.425Z,45
2017-08-16T08:30:53.304Z,45
2017-08-16T08:31:34.197Z,40
2017-08-16T08:32:15.088Z,40
2017-08-16T08:32:55.962Z,40
2017-08-16T08:33:36.845Z,40
2017-08-16T08:34:17.735Z,40
2017-08-16T08:34:58.661Z,40
2017-08-16T08:35:39.550Z,40
2017-08-16T08:36:20.451Z,40
2017-08-16T08:37:01.340Z,45
2017-08-16T08:37:42.267Z,40
2017-08-16T08:38:23.125Z,40
2017-08-16T08:39:03.996Z,35
2017-08-16T08:39:44.874Z,35
2017-08-16T08:40:25.799Z,35
2017-08-16T08:41:06.663Z,30
2017-08-16T08:41:47.546Z,20
2017-08-16T08:42:28.435Z,20
2017-08-16T08:43:09.330Z,20
2017-08-16T08:43:50.203Z,30
2017-08-16T08:44:31.089Z,35
2017-08-16T08:45:11.997Z,40
2017-08-16T08:45:52.875Z,55
2017-08-16T08:46:33.762Z,60
2017-08-16T08:47:14.672Z,65
2017-08-16T08:47:55.549Z,70
2017-08-16T08:48:36.433Z,65
2017-08-16T08:49:17.321Z,70
2017-08-16T08:49:58.217Z,75
2017-08-16T08:50:39.090Z,75
2017-08-16T08:51:19.973Z,75
2017-08-16T08:52:00.870Z,80
2017-08-16T08:52:41.757Z,85
2017-08-16T08:53:22.641Z,85
2017-08-16T08:54:03.565Z,90
2017-08-16T08:54:44.471Z,95
2017-08-16T08:55:25.376Z,95
2017-08-16T08:56:06.256Z,100
2017-08-16T08:56:47.149Z,105
2017-08-16T08:57:28.051Z,110
2017-08-16T08:58:08.927Z,110
2017-08-16T08:58:49.808Z,115
2017-08-16T08:59:30.712Z,115
2017-08-16T09:00:11.618Z,115
2017-08-16T09:00:52.493Z,110
2017-08-16T09:01:33.397Z,110
2017-08-16T09:02:14.279Z,110
2017-08-16T09:02:55.161Z,105
2017-08-16T09:03:36.047Z,105
2017-08-16T09:04:16.945Z,105
2017-08-16T09:04:57.836Z,105
2017-08-16T09:05:38.720Z,105
2017-08-16T09:06:19.634Z,105
2017-08-16T09:07:00.515Z,100
2017-08-16T09:07:41.435Z,95
2017-08-16T09:08:22.337Z,95
2017-08-16T09:09:03.205Z,90
2017-08-16T09:09:44.094Z,90
2017-08-16T09:10:24.982Z,90
2017-08-16T09:11:05.884Z,85
2017-08-16T09:11:46.828Z,85
2017-08-16T09:12:27.681Z,85
2017-08-16T09:13:08.573Z,80
2017-08-16T09:13:49.546Z,80
2017-08-16T09:14:30.353Z,80
2017-08-16T09:15:11.266Z,80
2017-08-16T09:15:52.152Z,80
2017-08-16T09:16:33.046Z,80
2017-08-16T09:17:13.944Z,80
2017-08-16T09:17:54.834Z,85
2017-08-16T09:18:35.714Z,85
2017-08-16T09:19:16.599Z,90
2017-08-16T09:19:57.495Z,95
2017-08-16T09:20:38.383Z,95
2017-08-16T09:21:19.273Z,100
2017-08-16T09:22:00.156Z,105
2017-08-16T09:22:41.049Z,105
2017-08-16T09:23:21.923Z,110
2017-08-16T09:24:02.824Z,110
2017-08-16T09:24:43.720Z,115
2017-08-16T09:25:24.598Z,115
2017-08-16T09:26:05.499Z,120
2017-08-16T09:26:46.398Z,120
2017-08-16T09:27:27.273Z,120
2017-08-16T09:28:08.155Z,120
2017-08-16T09:28:49.052Z,120
2017-08-16T09:29:29.943Z,120
2017-08-16T09:30:10.833Z,120
2017-08-16T09:30:51.762Z,120
2017-08-16T09:31:32.666Z,120
2017-08-16T09:32:13.543Z,120
2017-08-16T09:32:54.436Z,115
2017-08-16T09:33:35.318Z,115
2017-08-16T09:34:16.223Z,115
2017-08-16T09:34:57.107Z,110
2017-08-16T09:35:38.009Z,110
2017-08-16T09:36:18.900Z,110
2017-08-16T09:36:59.788Z,105
2017-08-16T09:37:40.682Z,105
2017-08-16T09:38:21.577Z,100
2017-08-16T09:39:02.467Z,100
2017-08-16T09:39:43.347Z,100
2017-08-16T09:40:24.253Z,100
2017-08-16T09:41:05.210Z,95
2017-08-16T09:41:46.101Z,95
2017-08-16T09:42:26.985Z,95
2017-08-16T09:43:07.875Z,95
2017-08-16T09:43:48.769Z,95
2017-08-16T09:44:29.658Z,95
2017-08-16T09:45:10.556Z,90
2017-08-16T09:45:51.441Z,90
2017-08-16T09:46:32.335Z,90
2017-08-16T09:47:13.225Z,90
2017-08-16T09:47:54.111Z,85
2017-08-16T09:48:35.017Z,85
2017-08-16T09:49:15.934Z,80
2017-08-16T09:49:56.850Z,80
2017-08-16T09:50:37.734Z,80
2017-08-16T09:51:18.622Z,80
2017-08-16T09:51:59.529Z,80